Terminal Aerodrome Forecast
Issued by NWS

Home | Current Version | Previous Version | Text Only | Print | Product List | Glossary On
Versions: 1 2 3 4 5 6 7 8 9 10 11 12
000
FTUS42 TJSJ 022349
TAFJSJ
TAF
TJSJ 022349Z 0300/0324 09008KT P6SM VCSH FEW035 SCT060 SCT100
      TEMPO 0300/0304 08014G25KT SHRA BKN030
     FM031300 08017G23KT P6SM VCSH SCT025
     FM032300 08012KT P6SM FEW025 SCT040=

USA.gov is the U.S. government's official web portal to all federal, state and local government web resources and services.